createdAt,value
2019-05-03T00:02:12.188Z,20.08
2019-05-03T00:04:42.249Z,21.05
2019-05-03T00:07:11.809Z,20.30
2019-05-03T00:09:42.508Z,22.73
2019-05-03T00:12:12.521Z,20.50
2019-05-03T00:14:42.715Z,20.68
2019-05-03T00:17:11.721Z,24.37
2019-05-03T00:19:42.089Z,22.95
2019-05-03T00:22:12.354Z,22.22
2019-05-03T00:24:42.667Z,23.90
2019-05-03T00:27:12.595Z,22.85
2019-05-03T00:29:41.751Z,20.48
2019-05-03T00:32:12.335Z,22.70
2019-05-03T00:34:52.353Z,21.17
2019-05-03T00:37:23.004Z,24.15
2019-05-03T00:40:04.491Z,22.32
2019-05-03T00:42:33.117Z,22.55
2019-05-03T00:45:02.274Z,23.15
2019-05-03T00:47:32.690Z,20.50
2019-05-03T00:50:02.806Z,23.65
2019-05-03T00:52:31.889Z,23.10
2019-05-03T00:55:02.329Z,22.55
2019-05-03T00:57:32.244Z,21.65
2019-05-03T01:00:04.229Z,22.05
2019-05-03T01:02:32.878Z,22.52
2019-05-03T01:05:02.816Z,24.50
2019-05-03T01:07:32.017Z,23.15
2019-05-03T01:10:02.662Z,22.82
2019-05-03T01:12:32.415Z,24.75
2019-05-03T01:15:02.784Z,20.15
2019-05-03T01:17:32.568Z,21.68
2019-05-03T01:20:02.769Z,22.37
2019-05-03T01:22:32.238Z,22.13
2019-05-03T01:25:02.858Z,24.00
2019-05-03T01:27:34.151Z,24.00
2019-05-03T01:30:03.098Z,21.83
2019-05-03T01:32:32.946Z,22.62
2019-05-03T01:35:03.140Z,21.55
2019-05-03T01:37:32.136Z,24.52
2019-05-03T01:40:02.356Z,20.97
2019-05-03T01:42:32.174Z,21.70
2019-05-03T01:45:01.774Z,23.07
2019-05-03T01:47:32.568Z,27.00
2019-05-03T01:50:02.945Z,22.80
2019-05-03T01:52:41.961Z,24.98
2019-05-03T01:55:13.915Z,23.12
2019-05-03T01:57:41.911Z,23.85
2019-05-03T02:00:14.175Z,23.18
2019-05-03T02:02:47.240Z,26.02
2019-05-03T02:05:22.471Z,21.77
2019-05-03T02:07:52.885Z,24.92
2019-05-03T02:10:22.639Z,25.72
2019-05-03T02:12:52.259Z,23.38
2019-05-03T02:15:22.132Z,22.77
2019-05-03T02:17:52.059Z,23.40
2019-05-03T02:20:21.915Z,24.45
2019-05-03T02:22:52.166Z,23.65
2019-05-03T02:25:21.753Z,23.47
2019-05-03T02:27:52.587Z,24.15
2019-05-03T02:30:24.765Z,24.27
2019-05-03T02:32:53.356Z,26.42
2019-05-03T02:35:23.039Z,24.25
2019-05-03T02:37:54.408Z,24.50
2019-05-03T02:40:24.724Z,24.25
2019-05-03T02:43:11.652Z,25.92
2019-05-03T02:45:56.939Z,26.60
2019-05-03T02:48:41.930Z,25.57
2019-05-03T02:51:10.536Z,26.05
2019-05-03T02:53:39.173Z,25.75
2019-05-03T02:56:20.973Z,29.50
2019-05-03T02:58:38.172Z,24.30
2019-05-03T03:01:06.875Z,25.97
2019-05-03T03:03:36.570Z,25.02
2019-05-03T03:06:06.935Z,24.15
2019-05-03T03:08:37.708Z,24.85
2019-05-03T03:11:08.114Z,25.35
2019-05-03T03:13:38.033Z,23.30
2019-05-03T03:16:11.117Z,27.00
2019-05-03T03:18:40.919Z,24.72
2019-05-03T03:21:19.280Z,24.02
2019-05-03T03:24:16.886Z,27.77
2019-05-03T03:26:47.310Z,27.87
2019-05-03T03:29:19.145Z,28.92
2019-05-03T03:32:09.955Z,25.27
2019-05-03T03:34:56.855Z,26.27
2019-05-03T03:37:21.003Z,26.10
2019-05-03T03:39:50.422Z,30.95
2019-05-03T03:42:19.730Z,26.50
2019-05-03T03:44:48.890Z,29.65
2019-05-03T03:47:17.533Z,26.95
2019-05-03T03:49:47.395Z,32.15
2019-05-03T03:52:17.019Z,29.07
2019-05-03T03:54:47.976Z,32.48
2019-05-03T03:57:17.032Z,28.65
2019-05-03T03:59:45.806Z,30.37
2019-05-03T04:02:16.164Z,27.95
2019-05-03T04:04:45.778Z,28.35
2019-05-03T04:07:17.060Z,29.65
2019-05-03T04:09:47.629Z,28.42
2019-05-03T04:12:16.862Z,26.85
2019-05-03T04:14:50.288Z,31.02
2019-05-03T04:17:26.083Z,29.63
2019-05-03T04:19:56.247Z,28.98
2019-05-03T04:22:25.597Z,29.23
2019-05-03T04:24:55.375Z,28.98
2019-05-03T04:27:27.259Z,28.07
2019-05-03T04:29:55.826Z,29.52
2019-05-03T04:32:28.106Z,28.92
2019-05-03T04:34:56.054Z,28.27
2019-05-03T04:37:26.710Z,29.02
2019-05-03T04:39:56.070Z,31.23
2019-05-03T04:42:25.477Z,33.98
2019-05-03T04:44:56.254Z,29.27
2019-05-03T04:47:26.379Z,27.42
2019-05-03T04:49:55.505Z,25.12
2019-05-03T04:52:25.837Z,25.40
2019-05-03T04:54:56.680Z,25.30
2019-05-03T04:57:39.294Z,26.02
2019-05-03T04:59:56.273Z,21.97
2019-05-03T05:02:26.229Z,22.22
2019-05-03T05:04:55.623Z,21.23
2019-05-03T05:07:26.382Z,22.77
2019-05-03T05:09:56.229Z,22.30
2019-05-03T05:12:27.285Z,23.90
2019-05-03T05:14:57.935Z,23.40
2019-05-03T05:17:28.178Z,22.22
2019-05-03T05:20:10.235Z,21.07
2019-05-03T05:22:39.080Z,20.72
2019-05-03T05:25:25.149Z,24.12
2019-05-03T05:27:58.164Z,21.52
2019-05-03T05:30:26.843Z,20.97
2019-05-03T05:32:55.419Z,21.17
2019-05-03T05:35:24.849Z,23.25
2019-05-03T05:37:55.477Z,21.77
2019-05-03T05:40:24.596Z,22.67
2019-05-03T05:42:55.676Z,17.73
2019-05-03T05:45:25.225Z,20.88
2019-05-03T05:47:58.149Z,18.65
2019-05-03T05:50:37.323Z,17.65
2019-05-03T05:53:06.111Z,17.98
2019-05-03T05:55:52.389Z,17.27
2019-05-03T05:58:25.444Z,16.93
2019-05-03T06:00:55.197Z,15.60
2019-05-03T06:03:25.274Z,15.93
2019-05-03T06:05:55.357Z,17.25
2019-05-03T06:08:25.571Z,18.95
2019-05-03T06:11:10.563Z,14.18
2019-05-03T06:13:46.355Z,16.57
2019-05-03T06:16:28.764Z,12.03
2019-05-03T06:19:01.775Z,11.10
2019-05-03T06:21:35.307Z,9.95
2019-05-03T06:24:05.734Z,9.00
2019-05-03T06:26:36.843Z,9.98
2019-05-03T06:29:06.339Z,8.43
2019-05-03T06:31:42.397Z,6.12
2019-05-03T06:34:11.004Z,9.93
2019-05-03T06:36:40.719Z,8.18
2019-05-03T06:39:09.673Z,7.95
2019-05-03T06:41:38.309Z,8.13
2019-05-03T06:44:06.876Z,7.85
2019-05-03T06:46:45.967Z,7.72
2019-05-03T06:49:15.445Z,11.38
2019-05-03T06:51:45.638Z,8.83
2019-05-03T06:54:15.782Z,8.43
2019-05-03T06:56:45.234Z,8.65
2019-05-03T06:59:27.565Z,7.28
2019-05-03T07:02:00.785Z,9.50
2019-05-03T07:04:34.716Z,9.53
2019-05-03T07:07:15.517Z,9.35
2019-05-03T07:09:45.858Z,9.38
2019-05-03T07:12:14.943Z,8.20
2019-05-03T07:14:45.132Z,7.75
2019-05-03T07:17:14.532Z,6.83
2019-05-03T07:19:43.278Z,9.65
2019-05-03T07:22:11.908Z,7.12
2019-05-03T07:24:41.064Z,8.50
2019-05-03T07:27:10.508Z,8.75
2019-05-03T07:29:39.070Z,7.80
2019-05-03T07:32:07.716Z,8.25
2019-05-03T07:34:36.470Z,8.43
2019-05-03T07:37:05.878Z,9.03
2019-05-03T07:39:35.030Z,7.42
2019-05-03T07:42:05.402Z,8.80
2019-05-03T07:44:34.757Z,6.87
2019-05-03T07:47:04.750Z,8.35
2019-05-03T07:49:35.472Z,7.65
2019-05-03T07:52:05.896Z,8.60
2019-05-03T07:54:34.990Z,8.08
2019-05-03T07:57:05.322Z,9.08
2019-05-03T07:59:35.545Z,10.43
2019-05-03T08:02:05.586Z,9.00
2019-05-03T08:04:35.809Z,9.53
2019-05-03T08:07:04.671Z,9.08
2019-05-03T08:09:35.082Z,9.08
2019-05-03T08:12:05.077Z,10.30
2019-05-03T08:14:35.498Z,10.90
2019-05-03T08:17:05.231Z,10.23
2019-05-03T08:19:35.923Z,7.90
2019-05-03T08:22:05.137Z,8.60
2019-05-03T08:24:34.630Z,8.28
2019-05-03T08:27:05.086Z,8.35
2019-05-03T08:29:35.163Z,10.90
2019-05-03T08:32:05.684Z,12.78
2019-05-03T08:34:38.592Z,7.97
2019-05-03T08:37:10.762Z,8.05
2019-05-03T08:39:39.332Z,9.28
2019-05-03T08:42:15.534Z,8.55
2019-05-03T08:44:45.328Z,10.58
2019-05-03T08:47:15.473Z,8.55
2019-05-03T08:49:45.062Z,13.68
2019-05-03T08:52:15.637Z,10.28
2019-05-03T08:54:44.900Z,11.60
2019-05-03T08:57:14.939Z,8.05
2019-05-03T08:59:44.747Z,8.85
2019-05-03T09:02:14.921Z,6.42
2019-05-03T09:04:45.984Z,8.40
2019-05-03T09:07:15.851Z,9.05
2019-05-03T09:09:48.048Z,11.65
2019-05-03T09:12:22.419Z,10.40
2019-05-03T09:14:50.997Z,8.45
2019-05-03T09:17:19.579Z,8.90
2019-05-03T09:19:48.250Z,13.88
2019-05-03T09:22:16.896Z,8.15
2019-05-03T09:24:45.665Z,12.75
2019-05-03T09:27:15.468Z,7.20
2019-05-03T09:29:46.174Z,9.98
2019-05-03T09:32:14.779Z,7.35
2019-05-03T09:34:44.518Z,9.23
2019-05-03T09:37:15.380Z,9.63
2019-05-03T09:39:44.548Z,11.03
2019-05-03T09:42:14.957Z,12.60
2019-05-03T09:44:45.083Z,8.93
2019-05-03T09:47:14.650Z,9.53
2019-05-03T09:49:45.202Z,9.70
2019-05-03T09:52:16.111Z,9.60
2019-05-03T09:54:51.229Z,11.68
2019-05-03T09:57:19.796Z,8.63
2019-05-03T09:59:58.949Z,10.20
2019-05-03T10:02:18.569Z,8.13
2019-05-03T10:04:47.133Z,10.88
2019-05-03T10:07:15.887Z,9.88
2019-05-03T10:09:45.043Z,11.57
2019-05-03T10:12:16.182Z,10.93
2019-05-03T10:14:47.261Z,11.40
2019-05-03T10:17:22.484Z,12.85
2019-05-03T10:19:55.548Z,10.40
2019-05-03T10:22:32.529Z,9.78
2019-05-03T10:25:12.945Z,6.17
2019-05-03T10:27:47.373Z,9.13
2019-05-03T10:30:21.400Z,9.88
2019-05-03T10:32:57.558Z,12.95
2019-05-03T10:35:26.214Z,15.50
2019-05-03T10:37:55.801Z,15.30
2019-05-03T10:40:27.544Z,13.40
2019-05-03T10:42:56.477Z,8.03
2019-05-03T10:45:27.948Z,12.95
2019-05-03T10:47:55.406Z,8.93
2019-05-03T10:50:25.276Z,9.73
2019-05-03T10:53:05.197Z,14.83
2019-05-03T10:55:35.743Z,7.22
2019-05-03T10:58:19.073Z,8.75
2019-05-03T11:00:56.758Z,10.55
2019-05-03T11:03:24.635Z,9.50
2019-05-03T11:05:54.832Z,10.65
2019-05-03T11:08:23.536Z,4.37
2019-05-03T11:10:52.110Z,8.45
2019-05-03T11:13:20.766Z,7.95
2019-05-03T11:15:49.494Z,10.55
2019-05-03T11:18:18.126Z,9.00
2019-05-03T11:20:46.705Z,10.93
2019-05-03T11:23:15.302Z,14.35
2019-05-03T11:25:45.200Z,8.03
2019-05-03T11:28:21.443Z,8.33
2019-05-03T11:30:55.674Z,8.80
2019-05-03T11:33:25.724Z,11.05
2019-05-03T11:35:55.966Z,5.92
2019-05-03T11:38:28.877Z,8.65
2019-05-03T11:40:57.476Z,8.43
2019-05-03T11:43:26.045Z,9.10
2019-05-03T11:45:55.461Z,10.55
2019-05-03T11:48:25.245Z,11.43
2019-05-03T11:50:54.647Z,8.73
2019-05-03T11:53:25.035Z,8.03
2019-05-03T11:55:55.237Z,5.45
2019-05-03T11:58:27.010Z,10.35
2019-05-03T12:01:10.763Z,15.10
2019-05-03T12:03:36.632Z,9.48
2019-05-03T12:06:05.315Z,8.78
2019-05-03T12:08:34.611Z,8.00
2019-05-03T12:11:05.318Z,5.20
2019-05-03T12:13:33.522Z,7.33
2019-05-03T12:16:02.926Z,11.78
2019-05-03T12:18:46.079Z,8.18
2019-05-03T12:21:04.030Z,11.85
2019-05-03T12:23:33.952Z,6.75
2019-05-03T12:26:06.540Z,11.10
2019-05-03T12:28:35.298Z,7.17
2019-05-03T12:31:04.926Z,5.08
2019-05-03T12:33:35.471Z,6.35
2019-05-03T12:36:05.389Z,7.70
2019-05-03T12:38:34.972Z,8.18
2019-05-03T12:41:05.523Z,6.92
2019-05-03T12:43:33.956Z,8.35
2019-05-03T12:46:02.552Z,8.68
2019-05-03T12:48:31.115Z,9.15
2019-05-03T12:50:59.966Z,8.48
2019-05-03T12:53:28.799Z,8.95
2019-05-03T12:55:57.707Z,10.50
2019-05-03T12:58:27.928Z,7.20
2019-05-03T13:00:58.174Z,9.30
2019-05-03T13:03:28.372Z,8.23
2019-05-03T13:05:56.944Z,9.10
2019-05-03T13:08:35.272Z,6.37
2019-05-03T13:11:05.306Z,6.47
2019-05-03T13:13:35.900Z,7.35
2019-05-03T13:16:05.128Z,7.35
2019-05-03T13:18:35.089Z,6.12
2019-05-03T13:21:05.885Z,6.03
2019-05-03T13:23:35.319Z,10.50
2019-05-03T13:26:05.573Z,5.78
2019-05-03T13:28:34.839Z,9.03
2019-05-03T13:31:05.692Z,5.87
2019-05-03T13:33:34.824Z,8.58
2019-05-03T13:36:04.099Z,6.62
2019-05-03T13:38:34.661Z,8.23
2019-05-03T13:41:03.661Z,10.18
2019-05-03T13:43:32.331Z,9.58
2019-05-03T13:46:00.995Z,9.33
2019-05-03T13:48:41.514Z,5.28
2019-05-03T13:50:59.919Z,9.30
2019-05-03T13:53:28.564Z,10.30
2019-05-03T13:55:57.164Z,7.60
2019-05-03T13:58:26.441Z,8.28
2019-05-03T14:00:55.201Z,8.55
2019-05-03T14:03:23.895Z,7.53
2019-05-03T14:05:52.671Z,7.60
2019-05-03T14:08:21.387Z,6.95
2019-05-03T14:10:49.980Z,7.35
2019-05-03T14:13:18.545Z,7.28
2019-05-03T14:15:47.205Z,12.68
2019-05-03T14:18:15.851Z,11.12
2019-05-03T14:20:57.944Z,10.20
2019-05-03T14:23:26.519Z,5.35
2019-05-03T14:25:55.370Z,10.45
2019-05-03T14:28:25.207Z,6.90
2019-05-03T14:30:54.782Z,8.98
2019-05-03T14:33:24.854Z,5.65
2019-05-03T14:35:54.694Z,6.33
2019-05-03T14:38:25.441Z,6.97
2019-05-03T14:40:55.051Z,6.40
2019-05-03T14:43:24.878Z,9.18
2019-05-03T14:45:55.050Z,9.70
2019-05-03T14:48:24.871Z,7.03
2019-05-03T14:50:57.131Z,8.50
2019-05-03T14:53:25.479Z,8.10
2019-05-03T14:55:55.821Z,4.50
2019-05-03T14:58:40.884Z,7.25
2019-05-03T15:01:11.141Z,5.85
2019-05-03T15:03:39.703Z,7.72
2019-05-03T15:06:08.266Z,5.67
2019-05-03T15:08:37.215Z,8.93
2019-05-03T15:11:05.869Z,7.33
2019-05-03T15:13:35.011Z,6.28
2019-05-03T15:16:05.281Z,7.92
2019-05-03T15:18:34.869Z,10.43
2019-05-03T15:21:05.330Z,7.47
2019-05-03T15:23:34.680Z,6.90
2019-05-03T15:26:05.108Z,6.47
2019-05-03T15:28:35.664Z,6.40
2019-05-03T15:31:04.627Z,8.25
2019-05-03T15:33:35.185Z,8.78
2019-05-03T15:36:04.803Z,5.22
2019-05-03T15:38:34.668Z,6.62
2019-05-03T15:41:05.153Z,7.47
2019-05-03T15:43:51.515Z,6.35
2019-05-03T15:46:21.757Z,9.63
2019-05-03T15:48:51.976Z,5.70
2019-05-03T15:51:20.615Z,7.50
2019-05-03T15:53:49.190Z,11.28
2019-05-03T15:56:18.060Z,7.00
2019-05-03T15:58:46.977Z,5.00
2019-05-03T16:01:15.547Z,8.90
2019-05-03T16:03:44.883Z,5.83
2019-05-03T16:06:15.330Z,8.50
2019-05-03T16:08:44.649Z,6.72
2019-05-03T16:11:14.827Z,9.68
2019-05-03T16:13:44.832Z,11.20
2019-05-03T16:16:15.237Z,8.15
2019-05-03T16:18:44.860Z,10.10
2019-05-03T16:21:14.614Z,6.10
2019-05-03T16:23:46.286Z,9.55
2019-05-03T16:26:14.327Z,7.62
2019-05-03T16:28:46.407Z,8.60
2019-05-03T16:31:16.761Z,8.93
2019-05-03T16:33:45.752Z,8.03
2019-05-03T16:36:14.871Z,5.15
2019-05-03T16:38:44.943Z,5.67
2019-05-03T16:41:17.493Z,9.38
2019-05-03T16:43:45.539Z,6.03
2019-05-03T16:46:14.607Z,9.25
2019-05-03T16:48:44.838Z,12.33
2019-05-03T16:51:15.084Z,6.97
2019-05-03T16:53:44.594Z,10.28
2019-05-03T16:56:16.569Z,8.48
2019-05-03T16:58:44.668Z,7.50
2019-05-03T17:01:17.478Z,8.40
2019-05-03T17:03:45.761Z,8.03
2019-05-03T17:06:22.202Z,7.20
2019-05-03T17:09:09.996Z,8.58
2019-05-03T17:11:38.672Z,8.85
2019-05-03T17:14:07.322Z,7.33
2019-05-03T17:16:36.813Z,8.63
2019-05-03T17:19:05.961Z,10.78
2019-05-03T17:21:35.002Z,6.67
2019-05-03T17:24:04.352Z,6.45
2019-05-03T17:26:35.142Z,8.70
2019-05-03T17:29:04.646Z,6.92
2019-05-03T17:31:35.025Z,5.00
2019-05-03T17:34:05.378Z,8.20
2019-05-03T17:36:34.405Z,7.95
2019-05-03T17:39:07.142Z,6.55
2019-05-03T17:41:37.366Z,9.10
2019-05-03T17:44:07.872Z,12.05
2019-05-03T17:46:36.774Z,9.23
2019-05-03T17:49:05.385Z,12.18
2019-05-03T17:51:50.722Z,7.28
2019-05-03T17:54:26.931Z,10.75
2019-05-03T17:57:04.601Z,9.35
2019-05-03T17:59:35.156Z,8.45
2019-05-03T18:02:21.636Z,7.53
2019-05-03T18:05:09.110Z,11.45
2019-05-03T18:07:47.889Z,7.90
2019-05-03T18:10:16.613Z,8.90
2019-05-03T18:12:45.375Z,8.65
2019-05-03T18:15:14.790Z,9.15
2019-05-03T18:17:44.484Z,8.65
2019-05-03T18:20:14.948Z,9.05
2019-05-03T18:22:43.622Z,9.50
2019-05-03T18:25:14.179Z,12.07
2019-05-03T18:27:44.484Z,9.65
2019-05-03T18:30:14.386Z,10.05
2019-05-03T18:32:42.988Z,9.25
2019-05-03T18:35:11.622Z,7.90
2019-05-03T18:37:40.208Z,11.68
2019-05-03T18:40:09.018Z,9.65
2019-05-03T18:42:47.223Z,10.58
2019-05-03T18:45:26.074Z,9.65
2019-05-03T18:47:54.674Z,9.63
2019-05-03T18:50:23.249Z,10.05
2019-05-03T18:52:51.812Z,6.92
2019-05-03T18:55:20.478Z,7.37
2019-05-03T18:57:49.052Z,8.03
2019-05-03T19:00:19.331Z,9.48
2019-05-03T19:02:48.101Z,8.10
2019-05-03T19:05:18.318Z,12.35
2019-05-03T19:08:04.537Z,9.80
2019-05-03T19:10:37.626Z,9.83
2019-05-03T19:13:16.401Z,10.48
2019-05-03T19:15:45.064Z,8.25
2019-05-03T19:18:15.480Z,11.22
2019-05-03T19:20:45.566Z,7.78
2019-05-03T19:23:15.388Z,9.93
2019-05-03T19:25:49.011Z,7.17
2019-05-03T19:28:14.263Z,8.80
2019-05-03T19:30:45.713Z,9.48
2019-05-03T19:33:14.272Z,7.85
2019-05-03T19:35:44.417Z,10.03
2019-05-03T19:38:15.075Z,7.10
2019-05-03T19:40:45.341Z,7.97
2019-05-03T19:43:15.230Z,11.03
2019-05-03T19:45:44.926Z,9.13
2019-05-03T19:48:14.774Z,8.35
2019-05-03T19:50:44.802Z,8.63
2019-05-03T19:53:16.030Z,10.85
2019-05-03T19:55:50.382Z,8.73
2019-05-03T19:58:16.915Z,11.35
2019-05-03T20:01:05.624Z,10.85
2019-05-03T20:03:35.648Z,9.25
2019-05-03T20:06:06.054Z,10.18
2019-05-03T20:08:36.260Z,9.28
2019-05-03T20:11:18.269Z,10.23
2019-05-03T20:13:46.988Z,9.53
2019-05-03T20:16:15.789Z,10.63
2019-05-03T20:18:45.447Z,11.80
2019-05-03T20:21:14.951Z,11.97
2019-05-03T20:23:44.762Z,11.05
2019-05-03T20:26:14.893Z,10.15
2019-05-03T20:28:44.853Z,13.68
2019-05-03T20:31:13.737Z,11.05
2019-05-03T20:33:42.305Z,11.43
2019-05-03T20:36:10.934Z,11.10
2019-05-03T20:38:39.816Z,13.60
2019-05-03T20:41:08.373Z,11.80
2019-05-03T20:43:44.554Z,14.43
2019-05-03T20:46:15.145Z,14.25
2019-05-03T20:48:47.399Z,14.38
2019-05-03T20:51:15.994Z,12.93
2019-05-03T20:53:44.946Z,14.23
2019-05-03T20:56:15.327Z,14.35
2019-05-03T20:58:46.071Z,12.58
2019-05-03T21:01:15.272Z,11.78
2019-05-03T21:03:45.004Z,10.65
2019-05-03T21:06:15.274Z,12.82
2019-05-03T21:08:52.546Z,10.98
2019-05-03T21:11:14.792Z,13.22
2019-05-03T21:13:44.972Z,15.23
2019-05-03T21:16:30.452Z,12.88
2019-05-03T21:19:04.875Z,14.28
2019-05-03T21:21:40.902Z,12.37
2019-05-03T21:24:20.229Z,12.35
2019-05-03T21:26:48.890Z,13.22
2019-05-03T21:29:17.515Z,11.68
2019-05-03T21:31:46.125Z,13.15
2019-05-03T21:34:14.892Z,15.08
2019-05-03T21:36:45.215Z,13.78
2019-05-03T21:39:14.637Z,12.70
2019-05-03T21:41:45.088Z,14.10
2019-05-03T21:44:15.485Z,14.85
2019-05-03T21:46:45.770Z,10.80
2019-05-03T21:49:15.971Z,18.17
2019-05-03T21:51:44.962Z,18.65
2019-05-03T21:54:15.326Z,17.52
2019-05-03T21:56:44.697Z,17.48
2019-05-03T21:59:13.373Z,20.65
2019-05-03T22:01:45.660Z,23.62
2019-05-03T22:04:15.571Z,20.20
2019-05-03T22:06:44.485Z,21.35
2019-05-03T22:09:13.133Z,25.68
2019-05-03T22:11:42.023Z,22.73
2019-05-03T22:14:12.222Z,20.62
2019-05-03T22:16:42.446Z,22.93
2019-05-03T22:19:12.040Z,21.37
2019-05-03T22:21:42.401Z,27.77
2019-05-03T22:24:15.643Z,21.42
2019-05-03T22:26:48.744Z,19.07
2019-05-03T22:29:17.484Z,19.87
2019-05-03T22:31:46.047Z,23.05
2019-05-03T22:34:15.193Z,19.80
2019-05-03T22:36:44.410Z,20.50
2019-05-03T22:39:13.308Z,18.45
2019-05-03T22:41:43.697Z,18.27
2019-05-03T22:44:12.263Z,23.47
2019-05-03T22:46:40.902Z,20.02
2019-05-03T22:49:09.545Z,19.80
2019-05-03T22:51:38.086Z,17.90
2019-05-03T22:54:06.773Z,19.82
2019-05-03T22:56:35.746Z,21.70
2019-05-03T22:59:05.538Z,18.77
2019-05-03T23:01:35.254Z,22.67
2019-05-03T23:04:05.577Z,23.52
2019-05-03T23:06:34.435Z,26.07
2019-05-03T23:09:05.094Z,21.12
2019-05-03T23:11:35.302Z,21.27
2019-05-03T23:14:05.033Z,21.82
2019-05-03T23:16:35.607Z,20.25
2019-05-03T23:19:05.522Z,25.57
2019-05-03T23:21:45.109Z,22.73
2019-05-03T23:24:15.388Z,28.55
2019-05-03T23:26:45.138Z,22.80
2019-05-03T23:29:14.372Z,24.00
2019-05-03T23:31:44.836Z,23.22
2019-05-03T23:34:13.395Z,23.75
2019-05-03T23:36:42.417Z,25.55
2019-05-03T23:39:11.089Z,27.15
2019-05-03T23:41:39.717Z,27.02
2019-05-03T23:44:08.334Z,29.40
2019-05-03T23:46:38.621Z,23.55
2019-05-03T23:49:07.237Z,27.20
2019-05-03T23:51:46.442Z,25.35
2019-05-03T23:54:16.207Z,24.57
2019-05-03T23:56:45.855Z,28.42
2019-05-03T23:59:15.534Z,19.50
